Time;durP1;ratioP1;P1;durP2;ratioP2;P2;SDS_P1;SDS_P2;PMS_P1;PMS_P2;Temp;Humidity;BMP_temperature;BMP_pressure;BME280_temperature;BME280_humidity;BME280_pressure;Samples;Min_cycle;Max_cycle;Signal;HPM_P1;HPM_P2
2022/09/15 00:02:23;;;;;;;3.30;3.00;;;;;;;14.21;100.00;98328.95;1748714;82;20972;-71
2022/09/15 00:04:50;;;;;;;3.25;2.95;;;;;;;14.23;100.00;98327.89;1748716;82;21016;-71
2022/09/15 00:07:17;;;;;;;5.78;3.10;;;;;;;14.25;100.00;98319.47;1748802;82;21003;-71
2022/09/15 00:09:43;;;;;;;3.37;3.08;;;;;;;14.28;100.00;98317.09;1749212;82;21129;-71
2022/09/15 00:12:09;;;;;;;3.95;3.65;;;;;;;14.31;100.00;98320.80;1748726;82;21064;-71
2022/09/15 00:14:36;;;;;;;3.92;3.52;;;;;;;14.33;100.00;98324.14;1748756;82;21031;-71
2022/09/15 00:17:02;;;;;;;4.35;3.30;;;;;;;14.35;100.00;98320.46;1748719;82;20965;-71
2022/09/15 00:19:29;;;;;;;3.42;3.12;;;;;;;14.38;100.00;98319.40;1748711;82;21076;-71
2022/09/15 00:21:56;;;;;;;3.60;3.30;;;;;;;14.42;100.00;98327.38;1748679;82;21831;-71
2022/09/15 00:24:22;;;;;;;5.67;3.65;;;;;;;14.42;100.00;98328.22;1748633;82;21004;-71
2022/09/15 00:26:48;;;;;;;3.58;3.27;;;;;;;14.44;100.00;98327.63;1749102;81;21008;-71
2022/09/15 00:29:15;;;;;;;5.47;3.40;;;;;;;14.45;100.00;98320.62;1748724;82;20972;-71
2022/09/15 00:31:41;;;;;;;3.65;3.00;;;;;;;14.46;100.00;98315.27;1748669;82;20960;-71
2022/09/15 00:34:11;;;;;;;3.90;3.60;;;;;;;14.50;100.00;98311.13;1748583;81;21187;-71
2022/09/15 00:36:39;;;;;;;4.35;3.70;;;;;;;14.52;100.00;98311.84;1745894;82;20984;-71
2022/09/15 00:39:05;;;;;;;5.22;3.77;;;;;;;14.55;100.00;98305.91;1748661;82;21039;-71
2022/09/15 00:41:32;;;;;;;4.58;3.80;;;;;;;14.57;100.00;98303.17;1748724;82;20980;-71
2022/09/15 00:44:23;;;;;;;3.87;3.20;;;;;;;14.60;100.00;98304.22;1748895;82;21063;-71
2022/09/15 00:46:53;;;;;;;3.87;3.30;;;;;;;14.64;100.00;98301.27;1748677;82;21152;-72
2022/09/15 00:49:23;;;;;;;7.03;2.95;;;;;;;14.67;100.00;98287.95;1748614;82;21052;-71
2022/09/15 00:51:55;;;;;;;3.85;3.45;;;;;;;14.71;100.00;98287.24;1748663;82;21476;-71
2022/09/15 00:54:32;;;;;;;3.67;3.37;;;;;;;14.71;100.00;98295.09;1745311;82;20968;-71
2022/09/15 00:57:01;;;;;;;3.65;3.35;;;;;;;14.69;100.00;98288.66;1748438;82;20980;-71
2022/09/15 00:59:30;;;;;;;3.75;3.30;;;;;;;14.70;100.00;98281.65;1748684;82;21799;-71
2022/09/15 01:02:18;;;;;;;6.40;3.17;;;;;;;14.70;100.00;98281.65;1748674;82;21000;-71
2022/09/15 01:04:44;;;;;;;4.28;3.40;;;;;;;14.71;100.00;98283.31;1747124;81;21484;-71
2022/09/15 01:07:14;;;;;;;5.47;3.10;;;;;;;14.71;100.00;98273.68;1748687;82;20995;-71
2022/09/15 01:09:52;;;;;;;3.50;3.20;;;;;;;14.72;100.00;98272.73;1748677;81;21008;-71
2022/09/15 01:12:21;;;;;;;3.30;2.98;;;;;;;14.72;100.00;98272.73;1748648;82;21247;-71
2022/09/15 01:14:47;;;;;;;4.55;2.62;;;;;;;14.72;100.00;98268.80;1748681;82;21063;-71
2022/09/15 01:17:55;;;;;;;7.08;3.12;;;;;;;14.72;100.00;98268.80;1748667;82;20960;-71
2022/09/15 01:20:57;;;;;;;3.50;3.20;;;;;;;14.72;100.00;98262.73;1749216;82;21488;-71
2022/09/15 01:23:44;;;;;;;5.25;3.30;;;;;;;14.74;100.00;98253.82;1670724;82;20944;-71
2022/09/15 01:26:59;;;;;;;4.45;3.47;;;;;;;14.76;100.00;98236.69;1748649;82;21635;-71
2022/09/15 01:30:06;;;;;;;5.17;2.80;;;;;;;14.76;100.00;98236.69;1748719;82;21678;-71
2022/09/15 01:33:23;;;;;;;5.20;3.60;;;;;;;14.76;100.00;98232.77;1747929;82;20988;-70
2022/09/15 01:35:57;;;;;;;5.92;3.60;;;;;;;14.73;100.00;98223.84;1748661;82;21035;-71
2022/09/15 01:38:44;;;;;;;3.70;3.40;;;;;;;14.72;100.00;98223.48;1748797;82;20960;-71
2022/09/15 01:41:31;;;;;;;5.25;3.70;;;;;;;14.69;100.00;98223.23;1748789;82;21725;-71
2022/09/15 01:44:11;;;;;;;3.75;3.00;;;;;;;14.67;100.00;98220.38;1748123;82;21035;-71
2022/09/15 01:46:46;;;;;;;5.25;3.52;;;;;;;14.63;100.00;98218.47;1748945;82;20988;-71
2022/09/15 01:49:20;;;;;;;5.78;3.47;;;;;;;14.60;100.00;98221.80;1748947;82;20956;-71
2022/09/15 01:51:48;;;;;;;6.70;4.20;;;;;;;14.56;100.00;98224.32;1748830;82;21081;-71
2022/09/15 01:54:14;;;;;;;3.92;3.55;;;;;;;14.52;100.00;98223.72;1748858;82;21128;-71
2022/09/15 01:56:42;;;;;;;3.72;3.42;;;;;;;14.50;100.00;98223.48;1748746;82;20944;-71
2022/09/15 01:59:09;;;;;;;4.47;3.27;;;;;;;14.48;100.00;98220.50;1748807;82;21044;-70
2022/09/15 02:01:46;;;;;;;3.35;3.05;;;;;;;14.46;100.00;98222.40;1748832;81;21079;-70
2022/09/15 02:04:20;;;;;;;6.62;3.52;;;;;;;14.45;100.00;98221.20;1748936;82;20964;-70
2022/09/15 02:07:06;;;;;;;5.28;3.37;;;;;;;14.46;100.00;98223.70;1748821;82;21080;-70
2022/09/15 02:09:49;;;;;;;6.08;4.03;;;;;;;14.47;100.00;98225.84;1748575;82;20988;-70
2022/09/15 02:12:24;;;;;;;3.62;3.33;;;;;;;14.49;100.00;98220.02;1748764;82;21518;-70
2022/09/15 02:15:06;;;;;;;4.35;2.98;;;;;;;14.49;100.00;98220.02;1748822;82;20999;-70
2022/09/15 02:17:31;;;;;;;3.62;3.30;;;;;;;14.51;100.00;98219.44;1748233;81;21052;-70
2022/09/15 02:20:19;;;;;;;12.58;3.75;;;;;;;14.53;100.00;98216.23;1748805;82;21259;-70
2022/09/15 02:22:56;;;;;;;5.12;3.08;;;;;;;14.55;100.00;98221.34;1748734;82;21504;-70
2022/09/15 02:25:31;;;;;;;4.95;3.58;;;;;;;14.54;100.00;98215.75;1748803;82;21429;-70
2022/09/15 02:28:04;;;;;;;4.40;3.55;;;;;;;14.54;100.00;98215.75;1744618;82;21496;-70
2022/09/15 02:30:31;;;;;;;4.10;3.70;;;;;;;14.54;100.00;98215.75;1748877;82;20995;-71
2022/09/15 02:33:02;;;;;;;6.40;3.90;;;;;;;14.53;100.00;98215.39;1748805;82;20968;-70
2022/09/15 02:35:29;;;;;;;9.43;3.52;;;;;;;14.53;100.00;98212.78;1748646;82;20960;-70
2022/09/15 02:37:55;;;;;;;6.87;3.58;;;;;;;14.53;100.00;98212.78;1748857;82;21024;-70
2022/09/15 02:40:22;;;;;;;8.08;3.27;;;;;;;14.54;100.00;98202.67;1748764;82;21011;-70
2022/09/15 02:42:54;;;;;;;4.35;3.27;;;;;;;14.55;100.00;98206.48;1748796;82;21487;-70
2022/09/15 02:45:23;;;;;;;3.60;3.30;;;;;;;14.55;100.00;98206.48;1749009;82;21882;-70
2022/09/15 02:47:50;;;;;;;5.78;3.27;;;;;;;14.54;100.00;98198.27;1748801;82;21004;-70
2022/09/15 02:50:18;;;;;;;17.17;3.80;;;;;;;14.56;100.00;98198.16;1748817;82;21027;-70
2022/09/15 02:52:44;;;;;;;6.50;3.58;;;;;;;14.56;100.00;98194.23;1748778;82;20972;-70
2022/09/15 02:55:11;;;;;;;6.62;4.00;;;;;;;14.56;100.00;98194.23;1721327;82;21019;-70
2022/09/15 02:57:37;;;;;;;6.50;3.65;;;;;;;14.56;100.00;98200.30;1748745;82;21068;-70
2022/09/15 03:00:12;;;;;;;6.00;3.12;;;;;;;14.56;100.00;98192.92;1748657;82;20991;-70
2022/09/15 03:02:41;;;;;;;6.58;3.90;;;;;;;14.57;100.00;98193.28;1748862;82;20992;-70
2022/09/15 03:05:08;;;;;;;6.25;3.33;;;;;;;14.56;100.00;98191.61;1748745;81;21043;-70
2022/09/15 03:07:36;;;;;;;4.80;3.72;;;;;;;14.55;100.00;98195.18;1748771;82;20961;-70
2022/09/15 03:10:05;;;;;;;4.12;3.50;;;;;;;14.56;100.00;98194.23;1748845;82;21146;-70
2022/09/15 03:12:44;;;;;;;7.65;3.75;;;;;;;14.59;100.00;98186.14;1748651;82;21409;-70
2022/09/15 03:15:12;;;;;;;4.72;3.30;;;;;;;14.59;100.00;98186.14;1749056;82;20959;-71
2022/09/15 03:17:43;;;;;;;3.90;3.60;;;;;;;14.58;100.00;98186.63;1748818;82;21003;-71
2022/09/15 03:20:11;;;;;;;3.70;3.40;;;;;;;14.60;100.00;98193.84;1748786;82;21011;-71
2022/09/15 03:22:38;;;;;;;5.25;3.60;;;;;;;14.62;100.00;98186.72;1748731;82;21235;-71
2022/09/15 03:25:06;;;;;;;5.37;3.65;;;;;;;14.62;100.00;98186.72;1748926;82;20949;-71
2022/09/15 03:27:33;;;;;;;5.05;4.17;;;;;;;14.63;100.00;98184.45;1748902;82;20972;-71
2022/09/15 03:30:02;;;;;;;4.60;4.20;;;;;;;14.64;100.00;98178.74;1748790;82;21453;-71
2022/09/15 03:32:28;;;;;;;6.78;4.83;;;;;;;14.65;100.00;98171.25;1721255;82;21060;-71
2022/09/15 03:34:55;;;;;;;4.47;4.08;;;;;;;14.66;100.00;98176.84;1749767;82;21111;-71
2022/09/15 03:37:21;;;;;;;8.58;4.25;;;;;;;14.66;100.00;98176.84;1751611;82;20956;-71
2022/09/15 03:39:48;;;;;;;5.03;3.83;;;;;;;14.67;100.00;98179.81;1751658;82;21062;-71
2022/09/15 03:42:15;;;;;;;7.22;4.15;;;;;;;14.68;100.00;98176.25;1751638;81;21483;-71
2022/09/15 03:44:42;;;;;;;5.35;3.67;;;;;;;14.69;100.00;98170.90;1751666;82;21459;-71
2022/09/15 03:47:08;;;;;;;4.22;3.05;;;;;;;14.69;100.00;98168.28;1751743;82;21148;-71
2022/09/15 03:49:35;;;;;;;5.80;2.72;;;;;;;14.69;100.00;98168.76;1751629;82;20995;-71
2022/09/15 03:52:01;;;;;;;4.62;3.33;;;;;;;14.71;100.00;98165.55;1751577;82;20964;-71
2022/09/15 03:54:29;;;;;;;5.00;3.75;;;;;;;14.70;100.00;98166.50;1751723;82;21054;-71
2022/09/15 03:56:56;;;;;;;7.00;4.12;;;;;;;14.69;100.00;98164.83;1751647;82;21098;-70
2022/09/15 03:59:22;;;;;;;8.13;3.75;;;;;;;14.72;100.00;98171.97;1751697;82;21128;-70
2022/09/15 04:01:49;;;;;;;4.17;3.30;;;;;;;14.72;100.00;98171.97;1751579;82;21004;-70
2022/09/15 04:04:16;;;;;;;7.67;3.20;;;;;;;14.70;100.00;98166.02;1751650;82;21507;-70
2022/09/15 04:06:43;;;;;;;9.40;3.83;;;;;;;14.70;100.00;98166.02;1751601;82;20976;-70
2022/09/15 04:09:10;;;;;;;11.20;5.30;;;;;;;14.73;100.00;98176.25;1751771;82;20960;-70
2022/09/15 04:11:38;;;;;;;11.85;4.65;;;;;;;14.74;100.00;98165.31;1751639;82;21140;-70
2022/09/15 04:14:04;;;;;;;8.68;4.28;;;;;;;14.72;100.00;98169.36;1751665;82;20952;-70
2022/09/15 04:16:32;;;;;;;6.35;3.92;;;;;;;14.72;100.00;98168.52;1751646;82;20968;-70
2022/09/15 04:18:59;;;;;;;5.60;4.50;;;;;;;14.73;100.00;98172.80;1751642;82;20987;-70
2022/09/15 04:21:26;;;;;;;8.15;4.03;;;;;;;14.73;100.00;98168.41;1751626;82;21047;-70
2022/09/15 04:23:53;;;;;;;10.30;4.15;;;;;;;14.76;100.00;98169.95;1751697;82;21086;-70
2022/09/15 04:26:24;;;;;;;11.60;4.50;;;;;;;14.78;100.00;98166.27;1751624;82;21039;-70
2022/09/15 04:28:51;;;;;;;8.48;3.58;;;;;;;14.81;100.00;98169.92;1751366;82;21451;-70
2022/09/15 04:31:18;;;;;;;5.28;4.62;;;;;;;14.81;100.00;98173.02;1751535;82;21027;-70
2022/09/15 04:33:44;;;;;;;6.05;4.97;;;;;;;14.82;100.00;98173.37;1751657;82;20928;-70
2022/09/15 04:36:16;;;;;;;7.70;4.45;;;;;;;14.83;100.00;98169.32;1749372;82;21232;-70
2022/09/15 04:38:43;;;;;;;4.23;3.83;;;;;;;14.85;100.00;98165.75;1748955;82;21000;-70
2022/09/15 04:41:10;;;;;;;5.30;3.92;;;;;;;14.86;100.00;98166.11;1748668;82;21051;-70
2022/09/15 04:43:37;;;;;;;4.42;4.08;;;;;;;14.83;100.00;98164.56;1748703;82;21017;-70
2022/09/15 04:46:04;;;;;;;5.78;4.92;;;;;;;14.82;100.00;98164.20;1748697;82;20956;-70
2022/09/15 04:48:31;;;;;;;6.53;4.70;;;;;;;14.82;100.00;98161.59;1748625;82;21555;-70
2022/09/15 04:51:02;;;;;;;7.12;4.53;;;;;;;14.86;100.00;98158.25;1748669;81;20967;-70
2022/09/15 04:53:29;;;;;;;6.83;5.22;;;;;;;14.88;100.00;98161.11;1748694;82;20996;-70
2022/09/15 04:56:07;;;;;;;8.33;6.08;;;;;;;14.91;100.00;98157.42;1748013;82;20964;-70
2022/09/15 04:58:42;;;;;;;4.70;4.30;;;;;;;14.92;100.00;98156.47;1746372;82;20956;-70
2022/09/15 05:01:15;;;;;;;4.78;3.95;;;;;;;14.92;100.00;98153.38;1781844;79;21100;-70
2022/09/15 05:03:43;;;;;;;6.75;4.75;;;;;;;14.95;100.00;98156.23;1780595;80;20990;-70
2022/09/15 05:06:16;;;;;;;6.10;4.87;;;;;;;14.98;100.00;98163.84;1763896;81;21060;-71
2022/09/15 05:08:52;;;;;;;7.67;5.35;;;;;;;14.99;100.00;98161.55;1762252;81;21009;-70
2022/09/15 05:11:19;;;;;;;6.97;5.65;;;;;;;14.99;100.00;98163.69;1799569;79;21069;-71
2022/09/15 05:13:47;;;;;;;9.80;5.83;;;;;;;15.00;100.00;98163.22;1750359;81;21524;-73
2022/09/15 05:16:20;;;;;;;9.23;4.40;;;;;;;15.00;100.00;98163.22;1736646;82;21081;-70
2022/09/15 05:18:51;;;;;;;;;;;;;;;15.01;100.00;98164.41;1772863;79;20988;-70
2022/09/15 05:21:24;;;;;;;8.30;4.92;;;;;;;15.02;100.00;98163.92;1779867;80;20132;-70
2022/09/15 05:23:53;;;;;;;6.30;4.97;;;;;;;15.00;100.00;98160.59;1767927;79;21079;-71
2022/09/15 05:26:26;;;;;;;4.67;4.25;;;;;;;15.00;100.00;98154.05;1779500;80;21813;-71
2022/09/15 05:28:55;;;;;;;4.83;4.35;;;;;;;15.03;100.00;98140.72;1763250;81;21025;-70
2022/09/15 05:31:29;;;;;;;6.62;4.85;;;;;;;15.08;100.00;98139.40;1746174;82;32514;-72
2022/09/15 05:33:56;;;;;;;10.05;6.80;;;;;;;15.12;100.00;98140.82;1746464;81;21059;-71
2022/09/15 05:36:24;;;;;;;8.08;6.97;;;;;;;15.16;100.00;98142.24;1748326;81;21083;-71
2022/09/15 05:38:57;;;;;;;8.73;7.33;;;;;;;15.16;100.00;98137.00;1749885;82;21350;-71
2022/09/15 05:41:26;;;;;;;9.85;6.30;;;;;;;15.18;100.00;98129.50;1750333;82;21603;-72
2022/09/15 05:43:56;;;;;;;12.78;7.17;;;;;;;15.22;100.00;98136.13;1750105;82;21054;-71
2022/09/15 05:46:28;;;;;;;10.38;6.37;;;;;;;15.25;100.00;98141.13;1749450;81;21039;-72
2022/09/15 05:48:54;;;;;;;8.53;6.62;;;;;;;15.27;100.00;98137.90;1748629;81;21089;-72
2022/09/15 05:51:21;;;;;;;10.78;7.67;;;;;;;15.30;100.00;98130.62;1726503;82;21554;-72
2022/09/15 05:53:49;;;;;;;7.90;7.20;;;;;;;15.34;100.00;98139.08;1749273;81;21102;-72
2022/09/15 05:56:16;;;;;;;8.88;6.35;;;;;;;15.31;100.00;98138.01;1749684;82;22008;-72
2022/09/15 05:58:46;;;;;;;7.53;6.75;;;;;;;15.31;100.00;98144.56;1749403;82;21038;-72
2022/09/15 06:01:17;;;;;;;7.55;6.35;;;;;;;15.32;100.00;98160.62;1750442;81;21605;-72
2022/09/15 06:03:45;;;;;;;5.85;5.35;;;;;;;15.30;100.00;98159.92;1783559;80;21117;-72
2022/09/15 06:06:12;;;;;;;5.80;5.22;;;;;;;15.29;100.00;98155.16;1760678;81;21021;-72
2022/09/15 06:08:42;;;;;;;6.67;5.20;;;;;;;15.29;100.00;98155.16;1782993;80;21077;-72
2022/09/15 06:11:12;;;;;;;5.42;4.92;;;;;;;15.32;100.00;98147.53;1760794;81;21028;-71
2022/09/15 06:13:41;;;;;;;7.85;6.20;;;;;;;15.33;100.00;98147.41;1782081;80;21030;-71
2022/09/15 06:16:13;;;;;;;6.33;5.65;;;;;;;15.34;100.00;98145.62;1760845;81;21290;-71
2022/09/15 06:18:42;;;;;;;7.37;5.55;;;;;;;15.36;100.00;98149.78;1783373;80;22170;-71
2022/09/15 06:21:12;;;;;;;12.65;6.92;;;;;;;15.39;100.00;98148.67;1760207;81;21036;-70
2022/09/15 06:23:39;;;;;;;7.75;5.70;;;;;;;15.40;100.00;98145.93;1762868;80;21025;-70
2022/09/15 06:26:17;;;;;;;6.15;5.60;;;;;;;15.43;100.00;98147.00;1761048;80;20941;-70
2022/09/15 06:28:54;;;;;;;6.53;5.50;;;;;;;15.55;100.00;98135.17;1782730;80;21836;-71
2022/09/15 06:31:23;;;;;;;6.47;5.87;;;;;;;15.55;100.00;98135.17;1758760;80;21020;-71
2022/09/15 06:33:51;;;;;;;7.12;5.25;;;;;;;15.60;100.00;98126.45;1782638;80;21006;-72
2022/09/15 06:36:20;;;;;;;7.30;5.67;;;;;;;15.63;100.00;98128.34;1759245;81;21502;-72
2022/09/15 06:38:47;;;;;;;7.22;5.40;;;;;;;15.64;100.00;98120.83;1777021;80;21553;-72
2022/09/15 06:41:17;;;;;;;5.37;4.83;;;;;;;15.68;100.00;98108.31;1760374;81;21215;-71
2022/09/15 06:43:44;;;;;;;6.35;4.80;;;;;;;15.72;100.00;98098.76;1738019;80;21033;-72
2022/09/15 06:46:18;;;;;;;9.48;6.87;;;;;;;15.77;100.00;98111.48;1727923;83;21419;-70
2022/09/15 06:48:47;;;;;;;7.03;6.12;;;;;;;15.79;100.00;98110.37;1742860;82;21046;-71
2022/09/15 06:51:16;;;;;;;5.92;4.42;;;;;;;15.79;100.00;98112.98;1729480;81;21028;-72
2022/09/15 06:53:43;;;;;;;8.15;5.10;;;;;;;15.82;100.00;98115.36;1771058;80;21198;-72
2022/09/15 06:56:18;;;;;;;5.90;4.78;;;;;;;15.82;100.00;98110.59;1763805;81;21046;-73
2022/09/15 06:58:48;;;;;;;8.70;7.30;;;;;;;15.82;100.00;98114.05;1746218;81;20999;-72
2022/09/15 07:01:29;;;;;;;7.40;6.67;;;;;;;15.84;100.00;98104.27;1746985;81;20988;-72
2022/09/15 07:03:59;;;;;;;9.78;6.87;;;;;;;15.88;100.00;98112.70;1747679;82;21058;-72
2022/09/15 07:06:28;;;;;;;9.93;6.80;;;;;;;15.91;100.00;98106.38;1747924;82;21247;-71
2022/09/15 07:09:02;;;;;;;11.03;5.55;;;;;;;15.93;100.00;98119.72;1741591;81;21031;-72
2022/09/15 07:11:32;;;;;;;8.53;6.17;;;;;;;15.93;100.00;98121.02;1743353;81;21028;-73
2022/09/15 07:13:59;;;;;;;10.70;7.12;;;;;;;15.97;100.00;98116.36;1757210;81;21021;-72
2022/09/15 07:16:27;;;;;;;6.87;6.22;;;;;;;16.01;100.00;98113.32;1731043;81;21049;-73
2022/09/15 07:18:55;;;;;;;9.15;6.90;;;;;;;16.05;100.00;98104.23;1764100;80;21115;-73
2022/09/15 07:21:22;;;;;;;8.53;6.37;;;;;;;16.07;100.00;98107.56;1778310;80;21504;-73
2022/09/15 07:23:49;;;;;;;7.25;6.12;;;;;;;16.10;100.00;98108.61;1778247;80;21035;-71
2022/09/15 07:26:23;;;;;;;5.85;5.25;;;;;;;16.10;100.00;98108.61;1778458;80;21160;-72
2022/09/15 07:28:58;;;;;;;8.25;6.12;;;;;;;16.11;100.00;98104.20;1748456;80;21027;-72
2022/09/15 07:31:26;;;;;;;10.68;8.53;;;;;;;16.13;100.00;98110.98;1748033;82;21266;-72
2022/09/15 07:33:53;;;;;;;8.73;6.25;;;;;;;16.16;100.00;98107.27;1760640;80;20974;-74
2022/09/15 07:36:20;;;;;;;9.83;6.72;;;;;;;16.17;100.00;98103.69;1779910;79;21530;-72
2022/09/15 07:38:48;;;;;;;11.00;8.50;;;;;;;16.19;100.00;98108.29;1735659;81;21022;-72
2022/09/15 07:41:18;;;;;;;10.63;8.20;;;;;;;16.22;100.00;98108.03;1765181;81;21053;-72
2022/09/15 07:43:49;;;;;;;9.90;8.33;;;;;;;16.25;100.00;98100.38;1733079;82;21875;-71
2022/09/15 07:46:16;;;;;;;8.50;7.47;;;;;;;16.29;100.00;98095.23;1758669;81;21583;-71
2022/09/15 07:48:49;;;;;;;8.43;6.53;;;;;;;16.37;100.00;98096.72;1736615;81;21504;-72
2022/09/15 07:51:16;;;;;;;5.95;5.35;;;;;;;16.42;100.00;98096.64;1746115;82;21173;-71
2022/09/15 07:53:45;;;;;;;8.10;5.53;;;;;;;16.46;100.00;98091.48;1746237;82;21039;-75
2022/09/15 07:56:12;;;;;;;5.37;4.67;;;;;;;16.47;100.00;98089.20;1769838;79;21196;-72
2022/09/15 07:58:41;;;;;;;6.15;5.42;;;;;;;16.51;100.00;98080.59;1743033;81;21006;-70
2022/09/15 08:01:16;;;;;;;7.42;5.15;;;;;;;16.57;100.00;98074.81;1734732;82;21096;-72
2022/09/15 08:03:47;;;;;;;7.03;5.55;;;;;;;16.65;100.00;98070.21;1770696;79;21039;-72
2022/09/15 08:06:17;;;;;;;8.18;6.37;;;;;;;16.73;100.00;98074.31;1770768;80;21537;-73
2022/09/15 08:08:44;;;;;;;5.95;5.45;;;;;;;16.77;100.00;98069.98;1754161;79;21878;-72
2022/09/15 08:11:15;;;;;;;5.10;4.60;;;;;;;16.82;100.00;98074.31;1762334;80;20999;-71
2022/09/15 08:13:48;;;;;;;8.73;5.37;;;;;;;16.90;100.00;98071.50;1779364;79;21016;-72
2022/09/15 08:16:17;;;;;;;6.90;5.40;;;;;;;16.99;100.00;98073.28;1779331;80;21090;-73
2022/09/15 08:18:49;;;;;;;6.85;6.15;;;;;;;17.07;100.00;98072.95;1758726;81;20945;-73
2022/09/15 08:21:19;;;;;;;7.67;6.37;;;;;;;17.16;100.00;98068.68;1750403;81;21387;-74
2022/09/15 08:23:52;;;;;;;6.78;6.05;;;;;;;17.28;100.00;98070.18;1759419;79;21164;-71
2022/09/15 08:26:20;;;;;;;6.12;5.50;;;;;;;17.41;100.00;98068.08;1750416;81;21634;-73
2022/09/15 08:28:48;;;;;;;7.28;4.70;;;;;;;17.56;100.00;98060.61;1745001;80;21029;-73
2022/09/15 08:31:14;;;;;;;5.75;4.83;;;;;;;17.72;100.00;98069.25;1761905;81;21065;-72
2022/09/15 08:33:41;;;;;;;4.72;4.22;;;;;;;17.81;100.00;98060.00;1733188;82;21258;-71
2022/09/15 08:36:12;;;;;;;5.47;4.83;;;;;;;17.89;100.00;98049.61;1733013;82;21158;-74
2022/09/15 08:38:40;;;;;;;6.70;4.92;;;;;;;17.98;100.00;98049.24;1733488;82;21100;-72
2022/09/15 08:41:30;;;;;;;6.22;5.62;;;;;;;18.04;100.00;98042.06;1733159;81;21088;-73
2022/09/15 08:44:34;;;;;;;5.60;4.58;;;;;;;18.08;100.00;98042.13;1732953;82;21561;-72
2022/09/15 08:47:37;;;;;;;6.67;4.45;;;;;;;18.15;100.00;98035.80;1751221;80;21849;-71
2022/09/15 08:50:32;;;;;;;7.20;4.83;;;;;;;18.19;100.00;98031.88;1789875;80;21080;-71
2022/09/15 08:53:17;;;;;;;5.33;4.83;;;;;;;18.21;100.00;98030.77;1790600;80;21088;-72
2022/09/15 08:55:52;;;;;;;5.22;4.83;;;;;;;18.20;100.00;98029.10;1789173;80;21041;-73
2022/09/15 08:58:31;;;;;;;5.67;5.15;;;;;;;18.21;100.00;98029.94;1790483;80;21170;-73
2022/09/15 09:05:20;;;;;;;5.17;4.72;;;;;;;18.22;100.00;98032.91;1790807;80;21172;-71
2022/09/15 09:08:02;;;;;;;7.37;5.95;;;;;;;18.24;100.00;98034.42;1790743;80;21044;-72
2022/09/15 09:11:00;;;;;;;14.93;11.48;;;;;;;18.28;100.00;98039.39;1791084;80;21034;-72
2022/09/15 09:13:35;;;;;;;10.63;7.12;;;;;;;18.29;100.00;98035.80;1695851;84;21174;-72
2022/09/15 09:16:28;;;;;;;5.47;5.05;;;;;;;18.29;100.00;98023.46;1696689;84;21316;-71
2022/09/15 09:19:18;;;;;;;10.32;6.62;;;;;;;18.32;100.00;98021.03;1731676;82;21150;-71
2022/09/15 09:21:55;;;;;;;7.35;6.53;;;;;;;18.33;100.00;98030.09;1717588;82;21099;-72
2022/09/15 09:24:46;;;;;;;8.03;7.00;;;;;;;18.33;100.00;98029.27;1733198;82;21056;-70
2022/09/15 09:27:19;;;;;;;7.08;6.10;;;;;;;18.31;100.00;98018.88;1735572;82;21040;-71
2022/09/15 09:29:50;;;;;;;7.42;5.92;;;;;;;18.38;100.00;98016.02;1730137;82;21204;-72
2022/09/15 09:32:23;;;;;;;7.83;6.37;;;;;;;18.46;100.00;98035.83;1713107;82;21087;-70
2022/09/15 09:35:25;;;;;;;9.10;5.97;;;;;;;18.59;100.00;98038.95;1711557;83;21054;-70
2022/09/15 09:37:53;;;;;;;7.33;5.90;;;;;;;18.93;100.00;98039.14;1715339;83;21050;-73
2022/09/15 09:40:21;;;;;;;6.10;5.28;;;;;;;18.93;100.00;98039.14;1716261;83;22026;-72
2022/09/15 09:42:48;;;;;;;7.33;5.90;;;;;;;19.12;100.00;98038.64;1713671;82;21135;-72
2022/09/15 09:45:17;;;;;;;6.72;6.00;;;;;;;19.25;100.00;98039.08;1793282;78;20983;-72
2022/09/15 09:47:45;;;;;;;5.65;5.15;;;;;;;19.41;100.00;98039.19;1818855;78;21018;-72
2022/09/15 09:50:42;;;;;;;6.08;5.55;;;;;;;19.58;100.00;98028.32;1790861;78;21011;-71
2022/09/15 09:53:35;;;;;;;6.70;4.80;;;;;;;19.69;100.00;98033.33;1796792;78;21081;-71
2022/09/15 09:56:16;;;;;;;5.80;4.80;;;;;;;19.84;100.00;98035.71;1814066;78;21204;-70
2022/09/15 09:58:43;;;;;;;8.68;4.03;;;;;;;20.02;100.00;98036.13;1797779;78;21026;-71
2022/09/15 10:01:19;;;;;;;4.33;3.92;;;;;;;20.13;100.00;98035.86;1787013;79;20975;-72
2022/09/15 10:03:46;;;;;;;3.83;3.12;;;;;;;20.16;99.80;98036.88;1804663;78;21100;-71
2022/09/15 10:06:15;;;;;;;3.62;3.30;;;;;;;20.20;99.92;98037.70;1815747;78;21618;-72
2022/09/15 10:09:03;;;;;;;5.05;4.42;;;;;;;20.31;99.51;98040.55;1809705;78;21314;-74
2022/09/15 10:11:54;;;;;;;8.65;4.62;;;;;;;20.42;99.05;98036.81;1810000;77;21049;-73
2022/09/15 10:14:27;;;;;;;3.27;2.98;;;;;;;20.51;98.59;98042.47;1796890;77;21037;-73
2022/09/15 10:17:15;;;;;;;4.42;4.12;;;;;;;20.67;98.05;98044.32;1794579;78;21116;-71
2022/09/15 10:19:54;;;;;;;5.92;3.72;;;;;;;20.81;97.96;98041.03;1799000;78;21086;-73
2022/09/15 10:22:30;;;;;;;3.83;3.47;;;;;;;20.99;97.23;98034.62;1815435;78;21590;-73
2022/09/15 10:24:59;;;;;;;5.20;3.33;;;;;;;21.21;96.94;98027.06;1815457;77;20975;-73
2022/09/15 10:27:29;;;;;;;4.28;3.27;;;;;;;21.42;96.68;98030.52;1802933;78;21074;-74
2022/09/15 10:30:17;;;;;;;4.35;3.95;;;;;;;21.53;95.82;98027.05;1813508;78;21163;-73
2022/09/15 10:32:46;;;;;;;4.12;2.92;;;;;;;21.67;95.03;98025.53;1786273;80;21069;-73
2022/09/15 10:35:19;;;;;;;5.03;2.67;;;;;;;21.88;93.55;98021.84;1800656;77;21499;-71
2022/09/15 10:37:56;;;;;;;3.77;3.17;;;;;;;22.04;91.95;98019.66;1808342;78;21038;-72
2022/09/15 10:41:01;;;;;;;3.87;2.87;;;;;;;22.16;89.20;98020.14;1794917;79;21593;-72
2022/09/15 10:44:19;;;;;;;3.10;2.10;;;;;;;22.24;89.18;98018.76;1775027;78;21073;-71
2022/09/15 10:47:22;;;;;;;3.83;3.05;;;;;;;22.29;87.35;98019.08;1800137;78;21048;-76
2022/09/15 10:50:29;;;;;;;3.30;2.50;;;;;;;22.23;86.90;98010.48;1801404;78;21409;-75
2022/09/15 10:53:27;;;;;;;3.00;2.80;;;;;;;22.20;86.96;98006.85;1774174;79;21635;-74
2022/09/15 10:56:39;;;;;;;3.17;2.60;;;;;;;22.21;87.27;97993.44;1728877;80;21074;-72
2022/09/15 10:59:47;;;;;;;3.77;2.90;;;;;;;22.25;86.41;97995.25;1717161;80;21061;-77
2022/09/15 11:02:54;;;;;;;3.52;3.15;;;;;;;22.27;85.50;97995.91;1729094;80;21711;-73
2022/09/15 11:05:52;;;;;;;3.85;2.80;;;;;;;22.19;84.46;98000.73;1797793;77;21145;-76
2022/09/15 11:08:50;;;;;;;3.60;3.30;;;;;;;22.06;83.68;97996.99;1814157;77;21072;-72
2022/09/15 11:11:31;;;;;;;4.42;4.03;;;;;;;21.93;84.82;97994.38;1816835;77;21069;-71
2022/09/15 11:14:50;;;;;;;5.42;4.17;;;;;;;21.89;85.40;97986.44;1794631;78;21581;-74
2022/09/15 11:18:09;;;;;;;5.90;2.92;;;;;;;21.92;85.96;97984.78;1798272;78;21059;-75
2022/09/15 11:21:23;;;;;;;3.85;3.45;;;;;;;21.93;85.62;97977.16;1640395;84;21138;-75
2022/09/15 11:27:06;;;;;;;4.15;3.85;;;;;;;21.98;85.93;97981.42;1814856;77;21015;-75
2022/09/15 11:30:09;;;;;;;5.25;3.60;;;;;;;21.99;85.43;97983.08;1785494;78;21058;-74
2022/09/15 11:32:45;;;;;;;10.93;3.70;;;;;;;22.02;84.91;97977.14;1808138;78;21004;-73
2022/09/15 11:36:00;;;;;;;4.10;3.30;;;;;;;21.99;84.36;97974.31;1815116;78;21215;-71
2022/09/15 11:38:58;;;;;;;4.92;3.60;;;;;;;21.94;83.64;97981.47;1801514;78;21058;-71
2022/09/15 11:41:40;;;;;;;4.60;3.92;;;;;;;21.85;83.88;97982.48;1803242;78;21117;-72
2022/09/15 11:44:24;;;;;;;3.58;3.27;;;;;;;21.80;83.43;97972.89;1811000;78;21093;-72
2022/09/15 11:47:20;;;;;;;7.72;3.72;;;;;;;21.80;83.19;97976.03;1789406;78;21039;-73
2022/09/15 11:50:13;;;;;;;4.72;3.85;;;;;;;21.80;83.70;97969.42;1795448;78;21121;-71
2022/09/15 11:52:58;;;;;;;9.58;4.20;;;;;;;21.82;83.26;97969.58;1773226;77;21547;-70
2022/09/15 11:55:31;;;;;;;;;;;;;;;21.86;83.60;97972.22;1808287;77;21428;-70
2022/09/15 11:58:34;;;;;;;8.13;4.05;;;;;;;21.93;84.04;97964.42;1807749;78;20130;-72
2022/09/15 12:01:11;;;;;;;4.33;3.50;;;;;;;21.95;83.87;97967.73;1801556;78;20956;-74
2022/09/15 12:03:58;;;;;;;4.78;3.45;;;;;;;21.98;83.00;97966.86;1817648;78;21190;-71
2022/09/15 12:06:48;;;;;;;6.42;3.87;;;;;;;21.99;82.87;97975.13;1806285;78;21019;-70
2022/09/15 12:09:17;;;;;;;5.87;3.08;;;;;;;22.04;82.88;97968.53;1810729;77;21134;-72
2022/09/15 12:11:53;;;;;;;8.30;3.70;;;;;;;22.03;81.39;97960.27;1848245;77;21009;-70